createdAt,value
2022-10-22T00:00:02.674Z,0.00
2022-10-22T00:01:02.552Z,0.00
2022-10-22T00:02:02.818Z,0.00
2022-10-22T00:03:03.409Z,0.00
2022-10-22T00:04:03.271Z,0.00
2022-10-22T00:05:03.315Z,0.00
2022-10-22T00:06:03.159Z,0.00
2022-10-22T00:07:02.967Z,0.00
2022-10-22T00:08:03.501Z,0.00
2022-10-22T00:09:03.042Z,0.00
2022-10-22T00:10:03.142Z,0.00
2022-10-22T00:11:03.534Z,0.00
2022-10-22T00:12:03.197Z,0.00
2022-10-22T00:13:03.654Z,0.00
2022-10-22T00:14:03.557Z,0.00
2022-10-22T00:15:03.494Z,0.00
2022-10-22T00:16:03.475Z,0.00
2022-10-22T00:17:04.238Z,0.00
2022-10-22T00:18:03.775Z,0.00
2022-10-22T00:19:03.411Z,0.00
2022-10-22T00:20:03.511Z,0.00
2022-10-22T00:21:03.503Z,0.00
2022-10-22T00:22:03.321Z,0.00
2022-10-22T00:23:03.327Z,0.00
2022-10-22T00:24:03.747Z,0.00
2022-10-22T00:25:03.861Z,0.00
2022-10-22T00:26:03.582Z,0.00
2022-10-22T00:27:03.483Z,0.00
2022-10-22T00:28:03.313Z,0.00
2022-10-22T00:29:03.574Z,0.00
2022-10-22T00:30:03.464Z,0.00
2022-10-22T00:31:03.837Z,0.00
2022-10-22T00:32:02.826Z,0.00
2022-10-22T00:33:02.868Z,0.00
2022-10-22T00:34:03.027Z,0.00
2022-10-22T00:35:02.624Z,0.00
2022-10-22T00:36:02.690Z,0.00
2022-10-22T00:37:03.479Z,0.00
2022-10-22T00:38:03.579Z,0.00
2022-10-22T00:39:03.446Z,0.00
2022-10-22T00:40:03.591Z,0.00
2022-10-22T00:41:03.642Z,0.00
2022-10-22T00:42:03.601Z,0.00
2022-10-22T00:43:03.599Z,0.00
2022-10-22T00:44:03.787Z,0.00
2022-10-22T00:45:03.689Z,0.00
2022-10-22T00:46:03.897Z,0.00
2022-10-22T00:47:03.020Z,0.00
2022-10-22T00:48:02.878Z,0.00
2022-10-22T00:49:03.515Z,0.00
2022-10-22T00:51:03.496Z,0.00
2022-10-22T00:52:02.955Z,0.00
2022-10-22T00:53:03.337Z,0.00
2022-10-22T00:54:03.165Z,0.00
2022-10-22T00:55:02.992Z,0.00
2022-10-22T00:56:03.312Z,0.00
2022-10-22T00:57:03.487Z,0.00
2022-10-22T00:58:03.399Z,0.00
2022-10-22T00:59:03.539Z,0.00
2022-10-22T01:00:03.012Z,0.00
2022-10-22T01:01:03.642Z,0.00
2022-10-22T01:02:02.377Z,0.00
2022-10-22T01:03:02.686Z,0.00
2022-10-22T01:04:02.705Z,0.00
2022-10-22T01:05:02.565Z,0.00
2022-10-22T01:06:02.265Z,0.00
2022-10-22T01:07:02.842Z,0.00
2022-10-22T01:08:03.260Z,0.00
2022-10-22T01:09:02.695Z,0.00
2022-10-22T01:10:02.725Z,0.00
2022-10-22T01:11:02.590Z,0.00
2022-10-22T01:12:02.168Z,0.00
2022-10-22T01:13:02.122Z,0.00
2022-10-22T01:14:02.028Z,0.00
2022-10-22T01:15:02.222Z,0.00
2022-10-22T01:16:02.073Z,0.00
2022-10-22T01:17:02.849Z,0.00
2022-10-22T01:18:02.534Z,0.00
2022-10-22T01:19:02.352Z,0.00
2022-10-22T01:20:02.892Z,0.00
2022-10-22T01:21:02.689Z,0.00
2022-10-22T01:22:01.959Z,0.00
2022-10-22T01:23:02.533Z,0.00
2022-10-22T01:24:02.327Z,0.00
2022-10-22T01:25:02.258Z,0.00
2022-10-22T01:26:02.108Z,0.00
2022-10-22T01:27:02.871Z,0.00
2022-10-22T01:28:02.770Z,0.00
2022-10-22T01:29:02.322Z,0.00
2022-10-22T01:30:02.682Z,0.00
2022-10-22T01:31:02.554Z,0.00
2022-10-22T01:32:03.083Z,0.00
2022-10-22T01:33:02.826Z,0.00
2022-10-22T01:34:03.383Z,0.00
2022-10-22T01:35:02.874Z,0.00
2022-10-22T01:36:02.711Z,0.00
2022-10-22T01:37:03.172Z,0.00
2022-10-22T01:38:03.017Z,0.00
2022-10-22T01:39:03.481Z,0.00
2022-10-22T01:40:02.871Z,0.00
2022-10-22T01:41:02.846Z,0.00
2022-10-22T01:42:01.926Z,0.00
2022-10-22T01:43:02.550Z,0.00
2022-10-22T01:44:02.421Z,0.00
2022-10-22T01:45:01.903Z,0.00
2022-10-22T01:46:02.374Z,0.00
2022-10-22T01:47:02.800Z,0.00
2022-10-22T01:48:02.796Z,0.00
2022-10-22T01:49:03.034Z,0.00
2022-10-22T01:50:02.884Z,0.00
2022-10-22T01:51:02.570Z,0.00
2022-10-22T01:52:02.713Z,0.00
2022-10-22T01:53:02.219Z,0.00
2022-10-22T01:54:02.722Z,0.00
2022-10-22T01:55:02.284Z,0.00
2022-10-22T01:56:02.173Z,0.00
2022-10-22T01:57:02.676Z,0.00
2022-10-22T01:58:02.668Z,0.00
2022-10-22T01:59:02.536Z,0.00
2022-10-22T02:00:02.631Z,0.00
2022-10-22T02:01:02.570Z,0.00
2022-10-22T02:02:03.200Z,0.00
2022-10-22T02:03:02.947Z,0.00
2022-10-22T02:04:02.892Z,0.00
2022-10-22T02:05:02.747Z,0.00
2022-10-22T02:06:03.265Z,0.00
2022-10-22T02:07:03.833Z,0.00
2022-10-22T02:08:03.309Z,0.00
2022-10-22T02:09:03.554Z,0.00
2022-10-22T02:10:03.566Z,0.00
2022-10-22T02:11:03.305Z,0.00
2022-10-22T02:12:03.070Z,0.00
2022-10-22T02:13:02.573Z,0.00
2022-10-22T02:14:02.667Z,0.00
2022-10-22T02:15:02.548Z,0.00
2022-10-22T02:16:02.456Z,0.00
2022-10-22T02:17:03.051Z,0.00
2022-10-22T02:18:02.643Z,0.00
2022-10-22T02:19:03.034Z,0.00
2022-10-22T02:20:03.033Z,0.00
2022-10-22T02:21:03.090Z,0.00
2022-10-22T02:22:03.471Z,0.00
2022-10-22T02:23:03.394Z,0.00
2022-10-22T02:24:03.246Z,0.00
2022-10-22T02:25:03.528Z,0.00
2022-10-22T02:26:03.120Z,0.00
2022-10-22T02:27:03.481Z,0.00
2022-10-22T02:28:03.243Z,0.00
2022-10-22T02:29:03.171Z,0.00
2022-10-22T02:30:03.834Z,0.00
2022-10-22T02:31:03.779Z,0.00
2022-10-22T02:32:03.120Z,0.00
2022-10-22T02:33:02.679Z,0.00
2022-10-22T02:34:03.067Z,0.00
2022-10-22T02:35:02.553Z,0.00
2022-10-22T02:36:03.116Z,0.00
2022-10-22T02:37:03.465Z,0.00
2022-10-22T02:38:03.482Z,0.00
2022-10-22T02:39:03.142Z,0.00
2022-10-22T02:40:03.036Z,0.00
2022-10-22T02:41:03.018Z,0.00
2022-10-22T02:42:03.745Z,0.00
2022-10-22T02:43:03.716Z,0.00
2022-10-22T02:44:03.186Z,0.00
2022-10-22T02:45:03.683Z,0.00
2022-10-22T02:46:03.332Z,0.00
2022-10-22T02:47:03.954Z,0.00
2022-10-22T02:48:03.583Z,0.00
2022-10-22T02:49:03.447Z,0.00
2022-10-22T02:50:05.470Z,0.00
2022-10-22T02:51:03.867Z,0.00
2022-10-22T02:52:03.135Z,0.00
2022-10-22T02:53:03.039Z,0.00
2022-10-22T02:54:02.953Z,0.00
2022-10-22T02:55:02.918Z,0.00
2022-10-22T02:56:02.876Z,0.00
2022-10-22T02:57:03.397Z,0.00
2022-10-22T02:58:02.770Z,0.00
2022-10-22T02:59:02.774Z,0.00
2022-10-22T03:00:02.793Z,0.00
2022-10-22T03:01:02.876Z,0.00
2022-10-22T03:02:02.226Z,0.00
2022-10-22T03:03:02.070Z,0.00
2022-10-22T03:04:02.183Z,0.00
2022-10-22T03:05:02.141Z,0.00
2022-10-22T03:06:02.042Z,0.00
2022-10-22T03:07:02.425Z,0.00
2022-10-22T03:08:01.922Z,0.00
2022-10-22T03:09:02.337Z,0.00
2022-10-22T03:10:02.299Z,0.00
2022-10-22T03:11:02.248Z,0.00
2022-10-22T03:12:02.366Z,0.00
2022-10-22T03:13:02.248Z,0.00
2022-10-22T03:14:02.715Z,0.00
2022-10-22T03:15:02.283Z,0.00
2022-10-22T03:16:02.091Z,0.00
2022-10-22T03:17:02.108Z,0.00
2022-10-22T03:18:01.976Z,0.00
2022-10-22T03:19:01.808Z,0.00
2022-10-22T03:20:01.646Z,0.00
2022-10-22T03:21:02.167Z,0.00
2022-10-22T03:22:02.406Z,0.00
2022-10-22T03:23:02.233Z,0.00
2022-10-22T03:24:02.523Z,0.00
2022-10-22T03:25:02.267Z,0.00
2022-10-22T03:26:02.078Z,0.00
2022-10-22T03:27:02.733Z,0.00
2022-10-22T03:28:03.106Z,0.00
2022-10-22T03:29:02.902Z,0.00
2022-10-22T03:30:03.148Z,0.00
2022-10-22T03:31:02.894Z,0.00
2022-10-22T03:32:02.159Z,0.00
2022-10-22T03:33:02.072Z,0.00
2022-10-22T03:34:01.895Z,0.00
2022-10-22T03:35:02.305Z,0.00
2022-10-22T03:36:01.902Z,0.00
2022-10-22T03:37:02.438Z,0.00
2022-10-22T03:38:02.420Z,0.00
2022-10-22T03:39:02.366Z,0.00
2022-10-22T03:40:02.336Z,0.00
2022-10-22T03:41:02.288Z,0.00
2022-10-22T03:42:02.043Z,0.00
2022-10-22T03:43:01.922Z,0.00
2022-10-22T03:44:01.802Z,0.00
2022-10-22T03:45:01.911Z,0.00
2022-10-22T03:46:01.722Z,0.00
2022-10-22T03:47:02.866Z,0.00
2022-10-22T03:48:01.960Z,0.00
2022-10-22T03:49:02.316Z,0.00
2022-10-22T03:50:02.021Z,0.00
2022-10-22T03:51:01.940Z,0.00
2022-10-22T03:52:02.635Z,0.00
2022-10-22T03:53:02.501Z,0.00
2022-10-22T03:54:02.361Z,0.00
2022-10-22T03:55:02.484Z,0.00
2022-10-22T03:56:02.350Z,0.00
2022-10-22T03:57:03.000Z,0.00
2022-10-22T03:58:02.600Z,0.00
2022-10-22T03:59:02.472Z,0.00
2022-10-22T04:00:03.124Z,0.00
2022-10-22T04:01:02.906Z,0.00
2022-10-22T04:02:02.779Z,0.00
2022-10-22T04:03:03.066Z,0.00
2022-10-22T04:04:02.891Z,0.00
2022-10-22T04:05:03.250Z,0.00
2022-10-22T04:06:02.954Z,0.00
2022-10-22T04:07:02.899Z,0.00
2022-10-22T04:08:03.024Z,0.00
2022-10-22T04:09:03.568Z,0.00
2022-10-22T04:10:03.009Z,0.00
2022-10-22T04:11:03.024Z,0.00
2022-10-22T04:12:03.127Z,0.00
2022-10-22T04:13:03.312Z,0.00
2022-10-22T04:14:03.323Z,0.00
2022-10-22T04:15:02.688Z,0.00
2022-10-22T04:16:03.275Z,0.00
2022-10-22T04:17:02.244Z,0.00
2022-10-22T04:18:02.080Z,0.00
2022-10-22T04:19:01.942Z,0.00
2022-10-22T04:20:02.436Z,0.00
2022-10-22T04:21:02.235Z,0.00
2022-10-22T04:22:02.030Z,0.00
2022-10-22T04:23:01.960Z,0.00
2022-10-22T04:24:02.481Z,0.00
2022-10-22T04:25:02.064Z,0.00
2022-10-22T04:26:02.252Z,0.00
2022-10-22T04:27:02.711Z,0.00
2022-10-22T04:28:02.567Z,0.00
2022-10-22T04:29:03.043Z,0.00
2022-10-22T04:30:02.986Z,0.00
2022-10-22T04:31:02.836Z,0.00
2022-10-22T04:32:02.696Z,0.00
2022-10-22T04:33:02.613Z,0.00
2022-10-22T04:34:02.653Z,0.00
2022-10-22T04:35:02.747Z,0.00
2022-10-22T04:36:02.586Z,0.00
2022-10-22T04:37:02.636Z,0.00
2022-10-22T04:38:02.370Z,0.00
2022-10-22T04:39:02.816Z,0.00
2022-10-22T04:40:02.296Z,0.00
2022-10-22T04:41:02.921Z,0.00
2022-10-22T04:42:02.134Z,0.00
2022-10-22T04:43:01.995Z,0.00
2022-10-22T04:44:01.954Z,0.00
2022-10-22T04:45:02.403Z,0.00
2022-10-22T04:46:02.364Z,0.00
2022-10-22T04:47:02.730Z,0.00
2022-10-22T04:48:02.600Z,0.00
2022-10-22T04:49:02.502Z,0.00
2022-10-22T04:50:02.657Z,0.00
2022-10-22T04:51:02.387Z,0.00
2022-10-22T04:52:02.699Z,0.00
2022-10-22T04:53:02.387Z,0.00
2022-10-22T04:54:02.406Z,0.00
2022-10-22T04:55:03.035Z,0.00
2022-10-22T04:56:02.546Z,0.00
2022-10-22T04:57:02.562Z,0.00
2022-10-22T04:58:02.410Z,0.00
2022-10-22T04:59:02.250Z,0.00
2022-10-22T05:00:02.714Z,0.00
2022-10-22T05:01:02.547Z,0.00
2022-10-22T05:02:03.097Z,0.00
2022-10-22T05:03:02.689Z,0.00
2022-10-22T05:04:03.268Z,0.00
2022-10-22T05:05:03.468Z,0.00
2022-10-22T05:06:03.193Z,0.00
2022-10-22T05:07:02.357Z,0.00
2022-10-22T05:08:02.287Z,0.00
2022-10-22T05:09:02.274Z,0.00
2022-10-22T05:10:02.983Z,0.00
2022-10-22T05:11:02.595Z,0.00
2022-10-22T05:12:02.750Z,0.00
2022-10-22T05:13:03.135Z,0.00
2022-10-22T05:14:03.299Z,0.00
2022-10-22T05:15:02.878Z,0.00
2022-10-22T05:16:02.958Z,0.00
2022-10-22T05:17:02.483Z,0.00
2022-10-22T05:18:01.999Z,0.00
2022-10-22T05:19:02.498Z,0.00
2022-10-22T05:20:02.346Z,0.00
2022-10-22T05:21:02.599Z,0.00
2022-10-22T05:22:02.643Z,0.00
2022-10-22T05:23:02.127Z,0.00
2022-10-22T05:24:02.241Z,0.00
2022-10-22T05:25:02.121Z,0.00
2022-10-22T05:26:02.667Z,0.00
2022-10-22T05:27:02.962Z,0.00
2022-10-22T05:28:02.413Z,0.00
2022-10-22T05:29:02.799Z,0.00
2022-10-22T05:30:02.922Z,0.00
2022-10-22T05:31:03.052Z,0.00
2022-10-22T05:32:03.348Z,0.00
2022-10-22T05:33:02.808Z,0.00
2022-10-22T05:34:03.293Z,0.00
2022-10-22T05:35:03.467Z,4.00
2022-10-22T05:36:03.193Z,4.00
2022-10-22T05:37:02.836Z,4.00
2022-10-22T05:38:02.532Z,4.00
2022-10-22T05:39:02.337Z,4.00
2022-10-22T05:40:18.909Z,8.00
2022-10-22T05:41:02.331Z,4.00
2022-10-22T05:42:02.922Z,4.00
2022-10-22T05:43:02.500Z,8.00
2022-10-22T05:44:02.485Z,12.00
2022-10-22T05:45:02.793Z,8.00
2022-10-22T05:46:02.602Z,16.00
2022-10-22T05:47:03.085Z,16.00
2022-10-22T05:48:02.807Z,20.00
2022-10-22T05:49:02.829Z,24.00
2022-10-22T05:50:02.857Z,28.00
2022-10-22T05:51:02.858Z,32.00
2022-10-22T05:52:02.177Z,40.00
2022-10-22T05:53:02.829Z,48.00
2022-10-22T05:54:02.575Z,52.00
2022-10-22T05:55:02.658Z,60.00
2022-10-22T05:56:02.282Z,68.00
2022-10-22T05:57:02.673Z,80.00
2022-10-22T05:58:02.801Z,88.00
2022-10-22T06:00:02.767Z,112.00
2022-10-22T06:01:03.074Z,124.00
2022-10-22T06:02:02.051Z,140.00
2022-10-22T06:03:02.508Z,156.00
2022-10-22T06:04:02.450Z,172.00
2022-10-22T06:05:02.369Z,196.00
2022-10-22T06:06:02.697Z,216.00
2022-10-22T06:07:02.410Z,232.00
2022-10-22T06:08:02.373Z,252.00
2022-10-22T06:09:03.029Z,276.00
2022-10-22T06:10:02.922Z,304.00
2022-10-22T06:11:02.619Z,328.00
2022-10-22T06:12:02.582Z,360.00
2022-10-22T06:13:02.628Z,388.00
2022-10-22T06:14:02.981Z,424.00
2022-10-22T06:15:02.954Z,456.00
2022-10-22T06:16:02.926Z,496.00
2022-10-22T06:17:02.257Z,524.00
2022-10-22T06:18:02.038Z,556.00
2022-10-22T06:19:02.050Z,584.00
2022-10-22T06:20:01.962Z,608.00
2022-10-22T06:21:01.985Z,636.00
2022-10-22T06:22:02.591Z,668.00
2022-10-22T06:23:03.024Z,700.00
2022-10-22T06:24:02.993Z,740.00
2022-10-22T06:25:02.998Z,772.00
2022-10-22T06:26:02.736Z,816.00
2022-10-22T06:27:02.283Z,860.00
2022-10-22T06:28:02.733Z,916.00
2022-10-22T06:29:02.437Z,980.00
2022-10-22T06:30:02.729Z,1024.00
2022-10-22T06:31:02.390Z,1060.00
2022-10-22T06:32:02.761Z,1092.00
2022-10-22T06:33:02.624Z,1112.00
2022-10-22T06:34:02.735Z,1108.00
2022-10-22T06:35:02.963Z,1108.00
2022-10-22T06:36:06.679Z,1120.00
2022-10-22T06:37:02.497Z,1156.00
2022-10-22T06:38:02.728Z,1212.00
2022-10-22T06:39:02.722Z,1308.00
2022-10-22T06:40:02.691Z,1424.00
2022-10-22T06:41:02.729Z,1540.00
2022-10-22T06:42:02.805Z,1664.00
2022-10-22T06:43:02.695Z,1764.00
2022-10-22T06:44:02.996Z,1800.00
2022-10-22T06:46:02.897Z,1772.00
2022-10-22T06:47:02.925Z,1800.00
2022-10-22T06:48:03.459Z,1844.00
2022-10-22T06:49:02.679Z,1888.00
2022-10-22T06:50:03.363Z,1912.00
2022-10-22T06:51:03.093Z,1916.00
2022-10-22T06:52:03.038Z,1936.00
2022-10-22T06:53:03.024Z,1968.00
2022-10-22T06:54:03.016Z,1980.00
2022-10-22T06:55:03.086Z,1928.00
2022-10-22T06:56:03.421Z,1912.00
2022-10-22T06:57:02.256Z,1908.00
2022-10-22T06:58:02.050Z,1908.00
2022-10-22T06:59:02.062Z,1968.00
2022-10-22T07:00:02.067Z,2012.00
2022-10-22T07:01:02.196Z,2076.00
2022-10-22T07:02:02.575Z,2088.00
2022-10-22T07:03:02.599Z,2120.00
2022-10-22T07:04:02.679Z,2104.00
2022-10-22T07:05:02.509Z,2084.00
2022-10-22T07:06:02.615Z,2160.00
2022-10-22T07:07:02.686Z,2208.00
2022-10-22T07:08:03.012Z,2208.00
2022-10-22T07:09:02.957Z,2188.00
2022-10-22T07:10:02.713Z,2216.00
2022-10-22T07:11:02.694Z,2296.00
2022-10-22T07:12:02.673Z,2332.00
2022-10-22T07:13:02.490Z,2320.00
2022-10-22T07:14:02.416Z,2268.00
2022-10-22T07:15:02.425Z,2192.00
2022-10-22T07:16:02.466Z,2156.00
2022-10-22T07:17:02.173Z,2164.00
2022-10-22T07:18:02.165Z,2164.00
2022-10-22T07:19:02.231Z,2128.00
2022-10-22T07:20:02.221Z,2052.00
2022-10-22T07:21:02.142Z,1992.00
2022-10-22T07:22:02.845Z,1928.00
2022-10-22T07:23:02.762Z,1900.00
2022-10-22T07:24:02.595Z,1912.00
2022-10-22T07:25:06.534Z,1980.00
2022-10-22T07:26:02.818Z,2100.00
2022-10-22T07:27:03.300Z,2240.00
2022-10-22T07:28:02.873Z,2436.00
2022-10-22T07:29:02.761Z,2652.00
2022-10-22T07:30:02.965Z,2812.00
2022-10-22T07:31:03.092Z,2872.00
2022-10-22T07:32:02.502Z,2900.00
2022-10-22T07:33:02.580Z,2940.00
2022-10-22T07:34:02.373Z,2968.00
2022-10-22T07:35:02.759Z,3016.00
2022-10-22T07:36:02.543Z,3076.00
2022-10-22T07:37:02.647Z,3092.00
2022-10-22T07:38:02.243Z,3204.00
2022-10-22T07:39:02.360Z,3388.00
2022-10-22T07:40:03.873Z,3596.00
2022-10-22T07:41:02.633Z,3756.00
2022-10-22T07:42:02.809Z,3960.00
2022-10-22T07:43:02.731Z,4116.00
2022-10-22T07:44:02.929Z,4224.00
2022-10-22T07:45:02.776Z,4148.00
2022-10-22T07:46:02.845Z,4064.00
2022-10-22T07:47:03.013Z,4048.00
2022-10-22T07:48:02.770Z,3956.00
2022-10-22T07:49:03.115Z,3704.00
2022-10-22T07:50:02.723Z,3436.00
2022-10-22T07:51:02.809Z,3256.00
2022-10-22T07:52:02.988Z,3152.00
2022-10-22T07:53:02.987Z,3088.00
2022-10-22T07:54:03.082Z,3056.00
2022-10-22T07:55:03.419Z,3024.00
2022-10-22T07:56:02.804Z,2984.00
2022-10-22T07:57:02.420Z,2968.00
2022-10-22T07:58:02.114Z,3004.00
2022-10-22T08:00:02.169Z,3168.00
2022-10-22T08:01:02.332Z,3276.00
2022-10-22T08:02:03.149Z,3472.00
2022-10-22T08:03:03.146Z,3640.00
2022-10-22T08:04:02.675Z,3972.00
2022-10-22T08:05:02.796Z,4544.00
2022-10-22T08:06:03.082Z,4904.00
2022-10-22T08:07:03.217Z,4884.00
2022-10-22T08:08:03.163Z,4836.00
2022-10-22T08:09:03.159Z,4760.00
2022-10-22T08:10:03.324Z,5088.00
2022-10-22T08:11:03.295Z,5780.00
2022-10-22T08:12:02.296Z,8124.00
2022-10-22T08:13:02.456Z,5608.00
2022-10-22T08:14:02.310Z,4860.00
2022-10-22T08:15:02.607Z,6328.00
2022-10-22T08:16:02.767Z,5456.00
2022-10-22T08:17:02.645Z,4716.00
2022-10-22T08:18:02.746Z,4384.00
2022-10-22T08:19:03.169Z,4464.00
2022-10-22T08:20:02.888Z,5972.00
2022-10-22T08:21:02.935Z,4784.00
2022-10-22T08:22:02.723Z,5380.00
2022-10-22T08:23:02.515Z,7024.00
2022-10-22T08:24:02.596Z,7844.00
2022-10-22T08:25:02.684Z,11156.00
2022-10-22T08:26:02.765Z,12936.00
2022-10-22T08:27:03.158Z,12632.00
2022-10-22T08:28:02.529Z,11920.00
2022-10-22T08:29:02.724Z,11220.00
2022-10-22T08:30:02.559Z,11392.00
2022-10-22T08:31:02.650Z,10064.00
2022-10-22T08:32:03.397Z,9072.00
2022-10-22T08:33:02.907Z,5320.00
2022-10-22T08:34:03.099Z,5452.00
2022-10-22T08:35:03.151Z,12072.00
2022-10-22T08:36:03.395Z,11860.00
2022-10-22T08:37:02.881Z,10640.00
2022-10-22T08:38:02.646Z,9704.00
2022-10-22T08:39:02.865Z,9684.00
2022-10-22T08:40:02.793Z,10860.00
2022-10-22T08:41:02.297Z,11564.00
2022-10-22T08:42:02.829Z,12412.00
2022-10-22T08:43:02.930Z,8500.00
2022-10-22T08:44:03.172Z,12908.00
2022-10-22T08:45:02.871Z,7804.00
2022-10-22T08:46:03.088Z,6668.00
2022-10-22T08:47:02.076Z,4672.00
2022-10-22T08:48:02.210Z,5012.00
2022-10-22T08:49:02.276Z,4664.00
2022-10-22T08:50:02.471Z,4352.00
2022-10-22T08:51:02.728Z,4620.00
2022-10-22T08:52:03.128Z,4988.00
2022-10-22T08:53:02.534Z,5492.00
2022-10-22T08:54:02.875Z,8692.00
2022-10-22T08:55:02.630Z,14176.00
2022-10-22T08:56:02.798Z,12168.00
2022-10-22T08:57:02.841Z,10748.00
2022-10-22T08:58:03.374Z,11036.00
2022-10-22T08:59:02.806Z,10352.00
2022-10-22T09:00:03.071Z,9256.00
2022-10-22T09:01:02.824Z,7992.00
2022-10-22T09:02:02.511Z,7580.00
2022-10-22T09:03:02.266Z,7040.00
2022-10-22T09:04:02.679Z,6152.00
2022-10-22T09:05:02.676Z,5680.00
2022-10-22T09:06:02.665Z,5780.00
2022-10-22T09:07:02.677Z,6136.00
2022-10-22T09:08:03.183Z,6328.00
2022-10-22T09:09:03.134Z,6512.00
2022-10-22T09:10:02.916Z,6312.00
2022-10-22T09:11:03.138Z,6216.00
2022-10-22T09:12:02.927Z,6032.00
2022-10-22T09:13:03.266Z,5584.00
2022-10-22T09:14:03.590Z,5244.00
2022-10-22T09:15:03.493Z,4488.00
2022-10-22T09:16:03.088Z,4332.00
2022-10-22T09:17:03.038Z,4476.00
2022-10-22T09:18:03.459Z,4260.00
2022-10-22T09:19:03.296Z,4208.00
2022-10-22T09:20:03.181Z,4072.00
2022-10-22T09:21:03.141Z,4188.00
2022-10-22T09:22:02.683Z,4676.00
2022-10-22T09:23:03.181Z,5168.00
2022-10-22T09:24:02.891Z,4956.00
2022-10-22T09:25:02.977Z,4544.00
2022-10-22T09:26:03.001Z,4380.00
2022-10-22T09:27:03.310Z,4728.00
2022-10-22T09:28:03.352Z,4636.00
2022-10-22T09:29:03.094Z,4376.00
2022-10-22T09:30:03.127Z,3908.00
2022-10-22T09:31:03.697Z,3996.00
2022-10-22T09:32:02.273Z,3724.00
2022-10-22T09:33:02.325Z,3164.00
2022-10-22T09:34:02.391Z,2896.00
2022-10-22T09:35:02.426Z,3004.00
2022-10-22T09:36:02.538Z,3280.00
2022-10-22T09:37:02.508Z,3432.00
2022-10-22T09:38:02.585Z,3592.00
2022-10-22T09:39:02.598Z,4200.00
2022-10-22T09:40:02.602Z,4496.00
2022-10-22T09:41:02.312Z,4784.00
2022-10-22T09:42:02.978Z,4616.00
2022-10-22T09:43:02.918Z,4688.00
2022-10-22T09:44:03.114Z,4852.00
2022-10-22T09:45:03.069Z,4588.00
2022-10-22T09:46:03.143Z,3916.00
2022-10-22T09:47:02.642Z,3768.00
2022-10-22T09:48:02.855Z,3736.00
2022-10-22T09:49:02.655Z,3828.00
2022-10-22T09:50:02.645Z,3364.00
2022-10-22T09:51:02.653Z,3156.00
2022-10-22T09:52:02.747Z,3008.00
2022-10-22T09:53:03.194Z,3012.00
2022-10-22T09:54:02.628Z,2888.00
2022-10-22T09:55:02.699Z,2816.00
2022-10-22T09:56:02.977Z,3540.00
2022-10-22T09:57:02.931Z,4384.00
2022-10-22T09:58:03.361Z,4632.00
2022-10-22T09:59:02.789Z,4732.00
2022-10-22T10:00:03.404Z,4752.00
2022-10-22T10:01:03.545Z,4680.00
2022-10-22T10:02:13.705Z,3992.00
2022-10-22T10:03:03.357Z,3096.00
2022-10-22T10:04:06.956Z,2596.00
2022-10-22T10:05:03.126Z,3032.00
2022-10-22T10:06:05.927Z,4144.00
2022-10-22T10:07:02.799Z,5336.00
2022-10-22T10:08:02.606Z,5524.00
2022-10-22T10:09:02.505Z,5448.00
2022-10-22T10:10:02.282Z,5468.00
2022-10-22T10:11:02.849Z,5312.00
2022-10-22T10:12:02.818Z,5516.00
2022-10-22T10:13:03.217Z,6120.00
2022-10-22T10:14:02.995Z,6868.00
2022-10-22T10:15:02.948Z,7296.00
2022-10-22T10:16:03.331Z,8096.00
2022-10-22T10:17:02.909Z,8372.00
2022-10-22T10:18:03.038Z,8504.00
2022-10-22T10:19:03.345Z,7892.00
2022-10-22T10:20:04.232Z,7508.00
2022-10-22T10:21:03.432Z,7904.00
2022-10-22T10:22:03.090Z,8696.00
2022-10-22T10:23:03.496Z,9560.00
2022-10-22T10:24:03.525Z,9596.00
2022-10-22T10:25:03.081Z,8944.00
2022-10-22T10:26:03.765Z,8252.00
2022-10-22T10:27:03.102Z,7724.00
2022-10-22T10:28:03.048Z,6924.00
2022-10-22T10:29:03.151Z,6468.00
2022-10-22T10:30:02.893Z,7408.00
2022-10-22T10:31:03.005Z,8084.00
2022-10-22T10:32:03.090Z,7992.00
2022-10-22T10:33:02.980Z,8348.00
2022-10-22T10:34:02.999Z,8512.00
2022-10-22T10:35:03.058Z,6564.00
2022-10-22T10:36:02.805Z,8036.00
2022-10-22T10:37:02.760Z,7436.00
2022-10-22T10:38:02.862Z,7456.00
2022-10-22T10:39:02.951Z,6916.00
2022-10-22T10:40:03.024Z,6264.00
2022-10-22T10:41:02.733Z,5684.00
2022-10-22T10:42:03.455Z,5080.00
2022-10-22T10:43:03.473Z,5020.00
2022-10-22T10:44:03.498Z,4736.00
2022-10-22T10:45:03.624Z,4380.00
2022-10-22T10:46:03.625Z,4560.00
2022-10-22T10:47:02.764Z,5024.00
2022-10-22T10:48:02.863Z,5276.00
2022-10-22T10:49:02.979Z,6696.00
2022-10-22T10:50:02.765Z,7864.00
2022-10-22T10:51:02.845Z,9460.00
2022-10-22T10:52:03.626Z,10300.00
2022-10-22T10:53:03.502Z,10376.00
2022-10-22T10:54:03.609Z,10208.00
2022-10-22T10:55:03.310Z,9520.00
2022-10-22T10:56:03.783Z,9232.00
2022-10-22T10:57:03.586Z,9172.00
2022-10-22T10:58:03.476Z,9160.00
2022-10-22T10:59:03.602Z,9052.00
2022-10-22T11:00:03.533Z,9064.00
2022-10-22T11:01:03.614Z,8728.00
2022-10-22T11:02:02.929Z,8104.00
2022-10-22T11:03:02.972Z,7840.00
2022-10-22T11:04:03.097Z,7692.00
2022-10-22T11:05:02.636Z,7372.00
2022-10-22T11:06:02.933Z,7204.00
2022-10-22T11:07:10.942Z,7336.00
2022-10-22T11:08:02.849Z,7356.00
2022-10-22T11:09:03.053Z,7396.00
2022-10-22T11:10:03.092Z,7060.00
2022-10-22T11:11:03.050Z,6928.00
2022-10-22T11:12:03.571Z,7144.00
2022-10-22T11:13:03.135Z,8004.00
2022-10-22T11:14:03.542Z,8308.00
2022-10-22T11:15:03.504Z,7936.00
2022-10-22T11:16:03.518Z,7832.00
2022-10-22T11:17:03.678Z,8068.00
2022-10-22T11:18:03.553Z,7636.00
2022-10-22T11:19:03.874Z,7584.00
2022-10-22T11:20:03.761Z,7224.00
2022-10-22T11:21:03.865Z,7240.00
2022-10-22T11:22:03.394Z,7316.00
2022-10-22T11:23:19.325Z,7312.00
2022-10-22T11:24:03.028Z,7644.00
2022-10-22T11:25:03.277Z,7944.00
2022-10-22T11:26:03.377Z,7968.00
2022-10-22T11:27:02.946Z,7384.00
2022-10-22T11:28:09.100Z,6992.00
2022-10-22T11:29:03.331Z,7176.00
2022-10-22T11:30:03.273Z,7156.00
2022-10-22T11:31:03.119Z,8332.00
2022-10-22T11:32:03.847Z,9500.00
2022-10-22T11:33:03.946Z,9916.00
2022-10-22T11:34:09.775Z,9600.00
2022-10-22T11:35:03.886Z,8668.00
2022-10-22T11:36:03.838Z,8668.00
2022-10-22T11:37:03.905Z,8504.00
2022-10-22T11:38:03.975Z,8408.00
2022-10-22T11:39:03.765Z,7720.00
2022-10-22T11:40:03.787Z,6812.00
2022-10-22T11:41:03.714Z,6564.00
2022-10-22T11:42:03.418Z,6788.00
2022-10-22T11:43:03.403Z,6200.00
2022-10-22T11:44:03.058Z,5744.00
2022-10-22T11:45:03.055Z,5620.00
2022-10-22T11:46:03.127Z,6688.00
2022-10-22T11:47:03.654Z,7868.00
2022-10-22T11:48:03.415Z,8348.00
2022-10-22T11:49:03.304Z,8952.00
2022-10-22T11:50:03.470Z,9092.00
2022-10-22T11:51:03.365Z,9144.00
2022-10-22T11:52:05.020Z,8848.00
2022-10-22T11:53:03.055Z,8168.00
2022-10-22T11:54:02.913Z,7668.00
2022-10-22T11:55:02.953Z,8396.00
2022-10-22T11:56:03.052Z,8676.00
2022-10-22T11:57:03.806Z,8620.00
2022-10-22T11:58:03.526Z,8700.00
2022-10-22T11:59:03.787Z,8316.00
2022-10-22T12:00:03.521Z,8092.00
2022-10-22T12:01:03.646Z,8096.00
2022-10-22T12:02:02.452Z,7860.00
2022-10-22T12:03:02.533Z,8104.00
2022-10-22T12:04:02.702Z,7812.00
2022-10-22T12:05:02.928Z,7516.00
2022-10-22T12:06:03.014Z,6944.00
2022-10-22T12:07:03.109Z,6268.00
2022-10-22T12:08:03.799Z,5804.00
2022-10-22T12:09:03.440Z,6232.00
2022-10-22T12:10:03.492Z,5484.00
2022-10-22T12:11:03.494Z,4904.00
2022-10-22T12:12:03.390Z,5308.00
2022-10-22T12:13:02.435Z,4900.00
2022-10-22T12:14:02.707Z,4568.00
2022-10-22T12:15:02.565Z,4048.00
2022-10-22T12:16:02.639Z,3508.00
2022-10-22T12:17:02.644Z,3168.00
2022-10-22T12:18:03.211Z,3292.00
2022-10-22T12:19:03.113Z,3268.00
2022-10-22T12:20:03.296Z,3152.00
2022-10-22T12:21:03.108Z,3124.00
2022-10-22T12:22:02.991Z,3048.00
2022-10-22T12:23:03.160Z,2996.00
2022-10-22T12:24:03.740Z,3328.00
2022-10-22T12:25:03.784Z,3700.00
2022-10-22T12:26:03.355Z,4668.00
2022-10-22T12:27:03.256Z,5864.00
2022-10-22T12:28:02.469Z,6452.00
2022-10-22T12:29:03.094Z,6372.00
2022-10-22T12:30:02.821Z,7656.00
2022-10-22T12:31:02.438Z,8600.00
2022-10-22T12:32:03.061Z,7564.00
2022-10-22T12:33:02.745Z,6856.00
2022-10-22T12:34:02.800Z,6364.00
2022-10-22T12:35:02.777Z,6028.00
2022-10-22T12:36:02.738Z,6320.00
2022-10-22T12:37:02.592Z,5600.00
2022-10-22T12:38:03.040Z,5560.00
2022-10-22T12:39:03.119Z,5772.00
2022-10-22T12:40:03.144Z,4352.00
2022-10-22T12:41:03.195Z,4288.00
2022-10-22T12:42:03.070Z,4272.00